createdAt,value
2023-03-16T00:14:17.438Z,0
2023-03-16T00:29:19.406Z,0
2023-03-16T00:44:21.368Z,0
2023-03-16T00:59:23.286Z,0
2023-03-16T01:14:25.231Z,0
2023-03-16T01:29:27.169Z,0
2023-03-16T01:44:29.157Z,0
2023-03-16T01:59:31.069Z,0
2023-03-16T02:14:32.946Z,0
2023-03-16T02:29:34.778Z,0
2023-03-16T02:44:36.892Z,0
2023-03-16T02:59:38.777Z,0
2023-03-16T03:14:40.732Z,0
2023-03-16T03:29:42.697Z,0
2023-03-16T03:44:44.650Z,0
2023-03-16T03:59:46.548Z,0
2023-03-16T04:14:48.373Z,0
2023-03-16T04:29:50.486Z,0
2023-03-16T04:44:52.435Z,0
2023-03-16T04:59:54.401Z,0
2023-03-16T05:14:56.365Z,0
2023-03-16T05:29:58.287Z,0
2023-03-16T05:45:00.210Z,0
2023-03-16T06:00:02.113Z,0
2023-03-16T06:15:04.012Z,0
2023-03-16T06:30:05.944Z,0
2023-03-16T06:45:07.908Z,0
2023-03-16T07:00:09.873Z,0
2023-03-16T07:15:11.872Z,0
2023-03-16T07:30:13.741Z,0
2023-03-16T07:45:15.631Z,0
2023-03-16T08:00:17.549Z,0
2023-03-16T08:15:19.473Z,0
2023-03-16T08:30:21.546Z,0
2023-03-16T08:45:23.467Z,0
2023-03-16T09:00:25.488Z,0
2023-03-16T09:15:27.413Z,0
2023-03-16T09:30:29.618Z,0
2023-03-16T09:45:32.188Z,0
2023-03-16T10:00:34.310Z,0
2023-03-16T10:15:36.286Z,0
2023-03-16T10:30:38.193Z,0
2023-03-16T10:45:40.164Z,0
2023-03-16T11:00:42.094Z,0
2023-03-16T11:15:44.037Z,0
2023-03-16T11:30:46.000Z,0
2023-03-16T11:45:48.030Z,0
2023-03-16T12:00:49.959Z,0
2023-03-16T12:15:51.948Z,0
2023-03-16T12:30:53.910Z,0
2023-03-16T12:45:55.855Z,0
2023-03-16T13:00:57.897Z,0
2023-03-16T13:15:59.910Z,0
2023-03-16T13:31:01.893Z,0
2023-03-16T13:46:03.843Z,0
2023-03-16T14:01:05.799Z,0
2023-03-16T14:16:07.782Z,0
2023-03-16T14:31:09.853Z,0
2023-03-16T14:46:11.957Z,0
2023-03-16T15:01:13.982Z,0
2023-03-16T15:16:15.991Z,0
2023-03-16T15:31:18.024Z,0
2023-03-16T15:46:19.998Z,0
2023-03-16T16:01:21.982Z,0
2023-03-16T16:16:23.996Z,0
2023-03-16T16:31:25.894Z,0
2023-03-16T16:46:27.871Z,0
2023-03-16T17:01:29.920Z,0
2023-03-16T17:16:32.181Z,0
2023-03-16T17:31:34.114Z,0
2023-03-16T17:46:36.168Z,0
2023-03-16T18:01:38.153Z,0
2023-03-16T18:16:40.177Z,0
2023-03-16T18:31:42.230Z,0
2023-03-16T18:46:44.222Z,0
2023-03-16T19:01:46.227Z,0
2023-03-16T19:16:48.324Z,0
2023-03-16T19:31:50.386Z,0
2023-03-16T19:46:52.373Z,0
2023-03-16T20:01:54.304Z,0
2023-03-16T20:16:56.252Z,0
2023-03-16T20:31:58.208Z,0
2023-03-16T20:47:00.203Z,1
2023-03-16T21:02:02.094Z,2
2023-03-16T21:17:03.998Z,3
2023-03-16T21:32:05.910Z,3
2023-03-16T21:47:08.085Z,3
2023-03-16T22:02:10.144Z,3
2023-03-16T22:17:12.148Z,6
2023-03-16T22:32:14.053Z,7
2023-03-16T22:47:15.929Z,3
2023-03-16T23:02:17.841Z,9
2023-03-16T23:17:19.833Z,6
2023-03-16T23:32:21.866Z,5
2023-03-16T23:47:23.872Z,6
